createdAt,value
2022-09-28T00:01:07.907Z,15.30
2022-09-28T00:03:37.351Z,15.30
2022-09-28T00:06:06.683Z,15.30
2022-09-28T00:08:37.574Z,15.30
2022-09-28T00:11:06.729Z,15.20
2022-09-28T00:13:35.511Z,15.20
2022-09-28T00:16:03.511Z,15.10
2022-09-28T00:18:32.845Z,15.10
2022-09-28T00:21:09.157Z,15.10
2022-09-28T00:24:00.381Z,15.10
2022-09-28T00:26:28.970Z,15.10
2022-09-28T00:29:01.244Z,15.00
2022-09-28T00:31:31.966Z,15.00
2022-09-28T00:34:00.992Z,15.00
2022-09-28T00:36:29.899Z,14.90
2022-09-28T00:38:58.575Z,14.90
2022-09-28T00:41:27.682Z,14.90
2022-09-28T00:44:15.757Z,14.90
2022-09-28T00:46:43.840Z,14.80
2022-09-28T00:49:16.081Z,14.90
2022-09-28T00:51:44.944Z,14.80
2022-09-28T00:54:13.742Z,14.80
2022-09-28T00:56:42.641Z,14.70
2022-09-28T00:59:11.265Z,14.70
2022-09-28T01:01:39.260Z,14.70
2022-09-28T01:04:07.481Z,14.70
2022-09-28T01:06:36.413Z,14.70
2022-09-28T01:09:05.509Z,14.70
2022-09-28T01:11:35.380Z,14.70
2022-09-28T01:14:06.781Z,14.60
2022-09-28T01:16:38.726Z,14.60
2022-09-28T01:19:32.929Z,14.60
2022-09-28T01:22:19.643Z,14.50
2022-09-28T01:24:48.530Z,14.50
2022-09-28T01:27:19.590Z,14.50
2022-09-28T01:33:55.080Z,14.40
2022-09-28T01:36:25.694Z,14.40
2022-09-28T01:39:02.178Z,14.30
2022-09-28T01:41:34.781Z,14.30
2022-09-28T01:44:05.266Z,14.30
2022-09-28T01:46:36.556Z,14.30
2022-09-28T01:49:14.638Z,14.30
2022-09-28T01:51:45.869Z,14.30
2022-09-28T01:54:15.762Z,14.20
2022-09-28T01:56:52.642Z,14.20
2022-09-28T01:59:28.091Z,14.20
2022-09-28T02:02:02.979Z,14.10
2022-09-28T02:04:35.592Z,14.10
2022-09-28T02:07:10.607Z,14.10
2022-09-28T02:09:40.946Z,14.10
2022-09-28T02:12:24.712Z,14.10
2022-09-28T02:15:00.093Z,14.10
2022-09-28T02:17:28.414Z,14.00
2022-09-28T02:19:56.620Z,14.00
2022-09-28T02:22:57.265Z,14.00
2022-09-28T02:25:30.477Z,13.90
2022-09-28T02:28:02.767Z,13.90
2022-09-28T02:30:31.779Z,13.90
2022-09-28T02:33:05.829Z,13.90
2022-09-28T02:35:35.788Z,13.90
2022-09-28T02:38:06.772Z,13.90
2022-09-28T02:40:38.261Z,13.90
2022-09-28T02:43:24.100Z,13.80
2022-09-28T02:46:04.680Z,13.80
2022-09-28T02:49:00.156Z,13.80
2022-09-28T02:51:58.068Z,13.70
2022-09-28T02:54:44.735Z,13.70
2022-09-28T02:57:31.229Z,13.70
2022-09-28T03:00:02.517Z,13.60
2022-09-28T03:02:34.774Z,13.60
2022-09-28T03:05:21.884Z,13.60
2022-09-28T03:07:57.805Z,13.60
2022-09-28T03:10:32.376Z,13.60
2022-09-28T03:13:01.203Z,13.50
2022-09-28T03:15:30.696Z,13.50
2022-09-28T03:17:59.687Z,13.50
2022-09-28T03:20:31.647Z,13.50
2022-09-28T03:25:54.922Z,13.40
2022-09-28T03:28:23.712Z,13.40
2022-09-28T03:30:54.201Z,13.40
2022-09-28T03:33:27.729Z,13.30
2022-09-28T03:35:56.032Z,13.30
2022-09-28T03:38:27.621Z,13.30
2022-09-28T03:40:59.582Z,13.30
2022-09-28T03:43:32.047Z,13.30
2022-09-28T03:46:03.942Z,13.20
2022-09-28T03:48:36.608Z,13.20
2022-09-28T03:51:06.205Z,13.20
2022-09-28T03:53:36.866Z,13.20
2022-09-28T03:56:09.516Z,13.20
2022-09-28T03:58:37.877Z,13.20
2022-09-28T04:01:07.218Z,13.20
2022-09-28T04:03:35.555Z,13.20
2022-09-28T04:06:03.716Z,13.10
2022-09-28T04:08:32.035Z,13.10
2022-09-28T04:11:03.662Z,13.20
2022-09-28T04:13:34.873Z,13.10
2022-09-28T04:16:04.201Z,13.10
2022-09-28T04:18:35.585Z,13.10
2022-09-28T04:21:12.569Z,13.10
2022-09-28T04:23:47.519Z,13.10
2022-09-28T04:26:20.977Z,13.10
2022-09-28T04:29:08.198Z,13.10
2022-09-28T04:31:40.205Z,13.10
2022-09-28T04:34:08.987Z,13.10
2022-09-28T04:36:37.589Z,13.10
2022-09-28T04:39:05.980Z,13.10
2022-09-28T04:41:36.941Z,13.10
2022-09-28T04:44:07.608Z,13.10
2022-09-28T04:46:36.107Z,13.10
2022-09-28T04:49:23.094Z,13.10
2022-09-28T04:51:56.634Z,13.10
2022-09-28T04:54:24.962Z,13.20
2022-09-28T04:56:55.824Z,13.20
2022-09-28T04:59:28.847Z,13.20
2022-09-28T05:02:00.513Z,13.20
2022-09-28T05:04:47.139Z,13.20
2022-09-28T05:07:35.984Z,13.20
2022-09-28T05:10:06.972Z,13.20
2022-09-28T05:12:38.698Z,13.30
2022-09-28T05:15:06.964Z,13.30
2022-09-28T05:17:38.229Z,13.30
2022-09-28T05:20:31.191Z,13.40
2022-09-28T05:22:59.406Z,13.50
2022-09-28T05:25:29.985Z,13.60
2022-09-28T05:28:20.931Z,13.70
2022-09-28T05:31:12.298Z,13.90
2022-09-28T05:34:18.533Z,14.00
2022-09-28T05:36:52.388Z,14.20
2022-09-28T05:39:23.467Z,14.40
2022-09-28T05:41:51.765Z,14.60
2022-09-28T05:44:23.035Z,14.70
2022-09-28T05:46:55.082Z,14.90
2022-09-28T05:49:29.515Z,15.00
2022-09-28T05:51:57.912Z,15.10
2022-09-28T05:54:29.785Z,15.20
2022-09-28T05:57:01.178Z,15.40
2022-09-28T05:59:32.038Z,15.70
2022-09-28T06:02:03.515Z,16.00
2022-09-28T06:04:34.843Z,16.40
2022-09-28T06:07:03.805Z,16.70
2022-09-28T06:09:31.909Z,17.20
2022-09-28T06:12:02.853Z,17.70
2022-09-28T06:14:39.547Z,18.10
2022-09-28T06:17:10.130Z,18.60
2022-09-28T06:19:44.587Z,19.00
2022-09-28T06:22:36.506Z,19.40
2022-09-28T06:25:08.005Z,19.80
2022-09-28T06:27:36.324Z,20.00
2022-09-28T06:30:05.746Z,20.30
2022-09-28T06:32:34.054Z,20.60
2022-09-28T06:35:04.559Z,20.90
2022-09-28T06:37:36.042Z,21.30
2022-09-28T06:40:05.446Z,21.60
2022-09-28T06:42:35.770Z,21.90
2022-09-28T06:45:25.765Z,22.10
2022-09-28T06:48:18.011Z,22.50
2022-09-28T06:50:53.161Z,22.80
2022-09-28T06:53:32.876Z,22.90
2022-09-28T06:56:13.475Z,23.10
2022-09-28T06:58:41.610Z,23.30
2022-09-28T07:01:15.222Z,23.40
2022-09-28T07:04:02.247Z,23.60
2022-09-28T07:06:49.068Z,23.90
2022-09-28T07:09:40.314Z,24.30
2022-09-28T07:12:38.239Z,24.40
2022-09-28T07:15:29.741Z,25.10
2022-09-28T07:18:07.159Z,25.60
2022-09-28T07:20:51.468Z,25.80
2022-09-28T07:23:21.663Z,26.20
2022-09-28T07:26:10.953Z,26.40
2022-09-28T07:29:11.098Z,26.70
2022-09-28T07:32:01.875Z,27.10
2022-09-28T07:34:49.941Z,27.40
2022-09-28T07:37:38.886Z,27.80
2022-09-28T07:40:28.648Z,28.10
2022-09-28T07:43:09.109Z,28.50
2022-09-28T07:45:39.907Z,29.10
2022-09-28T07:48:16.639Z,29.30
2022-09-28T07:51:00.505Z,29.50
2022-09-28T07:53:35.099Z,29.90
2022-09-28T07:56:21.850Z,30.40
2022-09-28T07:59:01.536Z,31.10
2022-09-28T08:01:32.416Z,31.70
2022-09-28T08:04:02.031Z,31.90
2022-09-28T08:06:32.863Z,31.80
2022-09-28T08:09:02.181Z,31.80
2022-09-28T08:11:53.259Z,30.90
2022-09-28T08:14:39.161Z,30.80
2022-09-28T08:17:29.170Z,29.50
2022-09-28T08:20:22.005Z,28.70
2022-09-28T08:22:51.869Z,29.50
2022-09-28T08:25:21.565Z,30.30
2022-09-28T08:27:49.999Z,30.30
2022-09-28T08:30:24.414Z,31.00
2022-09-28T08:33:03.172Z,30.50
2022-09-28T08:35:43.456Z,31.70
2022-09-28T08:38:21.384Z,31.90
2022-09-28T08:41:17.413Z,32.70
2022-09-28T08:44:24.937Z,33.70
2022-09-28T08:47:43.624Z,34.40
2022-09-28T08:50:42.277Z,34.90
2022-09-28T08:53:39.172Z,35.20
2022-09-28T08:56:30.560Z,34.00
2022-09-28T08:59:03.832Z,32.40
2022-09-28T09:01:35.088Z,32.70
2022-09-28T09:04:10.288Z,33.70
2022-09-28T09:07:32.206Z,32.30
2022-09-28T09:10:40.168Z,32.20
2022-09-28T09:13:19.527Z,33.50
2022-09-28T09:15:58.003Z,34.00
2022-09-28T09:18:47.995Z,34.30
2022-09-28T09:21:41.774Z,32.80
2022-09-28T09:24:27.443Z,31.70
2022-09-28T09:27:07.660Z,30.90
2022-09-28T09:29:46.167Z,30.90
2022-09-28T09:32:22.920Z,33.00
2022-09-28T09:35:08.963Z,34.90
2022-09-28T09:38:28.843Z,36.40
2022-09-28T09:41:26.988Z,37.70
2022-09-28T09:44:30.558Z,36.30
2022-09-28T09:47:27.011Z,37.30
2022-09-28T09:50:08.507Z,36.40
2022-09-28T09:52:52.210Z,34.70
2022-09-28T09:55:29.954Z,33.20
2022-09-28T09:58:37.036Z,32.10
2022-09-28T10:01:43.423Z,31.30
2022-09-28T10:04:34.542Z,30.60
2022-09-28T10:07:19.281Z,32.30
2022-09-28T10:09:53.200Z,33.80
2022-09-28T10:12:36.833Z,33.80
2022-09-28T10:15:10.529Z,33.40
2022-09-28T10:17:52.194Z,32.50
2022-09-28T10:21:01.519Z,32.00
2022-09-28T10:23:46.090Z,33.40
2022-09-28T10:26:25.238Z,33.00
2022-09-28T10:28:57.518Z,32.30
2022-09-28T10:31:36.143Z,32.60
2022-09-28T10:34:07.349Z,32.90
2022-09-28T10:36:47.366Z,33.70
2022-09-28T10:39:34.643Z,35.40
2022-09-28T10:42:08.241Z,36.80
2022-09-28T10:44:49.281Z,37.80
2022-09-28T10:47:31.703Z,37.40
2022-09-28T10:50:02.258Z,35.30
2022-09-28T10:52:31.640Z,33.60
2022-09-28T10:55:02.718Z,32.70
2022-09-28T10:57:37.283Z,32.30
2022-09-28T11:00:28.145Z,33.70
2022-09-28T11:03:26.128Z,35.00
2022-09-28T11:06:01.275Z,36.50
2022-09-28T11:08:33.743Z,36.10
2022-09-28T11:11:14.218Z,35.70
2022-09-28T11:13:43.111Z,36.50
2022-09-28T11:16:20.378Z,36.70
2022-09-28T11:18:51.924Z,37.70
2022-09-28T11:21:26.066Z,37.10
2022-09-28T11:24:01.779Z,35.50
2022-09-28T11:26:41.374Z,34.40
2022-09-28T11:29:25.085Z,34.90
2022-09-28T11:32:15.676Z,35.40
2022-09-28T11:35:07.370Z,36.50
2022-09-28T11:37:53.939Z,37.30
2022-09-28T11:41:00.821Z,38.00
2022-09-28T11:43:52.075Z,38.60
2022-09-28T11:46:41.619Z,39.20
2022-09-28T11:49:32.127Z,39.60
2022-09-28T11:52:03.728Z,40.20
2022-09-28T11:54:36.758Z,40.70
2022-09-28T11:57:05.896Z,41.00
2022-09-28T11:59:52.006Z,41.20
2022-09-28T12:02:23.783Z,41.10
2022-09-28T12:05:05.366Z,40.90
2022-09-28T12:07:53.855Z,40.60
2022-09-28T12:10:58.490Z,39.60
2022-09-28T12:13:51.816Z,39.80
2022-09-28T12:19:23.432Z,39.80
2022-09-28T12:21:56.900Z,40.00
2022-09-28T12:24:28.048Z,40.00
2022-09-28T12:27:08.153Z,40.10
2022-09-28T12:29:48.194Z,40.50
2022-09-28T12:32:38.836Z,40.70
2022-09-28T12:35:16.368Z,41.00
2022-09-28T12:37:57.279Z,41.20
2022-09-28T12:40:48.549Z,40.80
2022-09-28T12:43:35.454Z,39.40
2022-09-28T12:46:14.806Z,38.00
2022-09-28T12:49:21.664Z,38.00
2022-09-28T12:51:45.454Z,38.00
2022-09-28T12:54:31.986Z,38.10
2022-09-28T12:57:03.274Z,38.20
2022-09-28T12:59:38.529Z,38.60
2022-09-28T13:02:27.869Z,38.80
2022-09-28T13:05:17.211Z,38.70
2022-09-28T13:08:04.330Z,38.70
2022-09-28T13:10:35.495Z,38.70
2022-09-28T13:13:18.767Z,38.20
2022-09-28T13:15:56.140Z,37.60
2022-09-28T13:18:42.812Z,37.10
2022-09-28T13:21:26.646Z,37.10
2022-09-28T13:24:08.671Z,36.60
2022-09-28T13:26:45.179Z,35.90
2022-09-28T13:29:17.291Z,35.50
2022-09-28T13:31:50.862Z,35.40
2022-09-28T13:34:21.025Z,35.60
2022-09-28T13:37:07.796Z,36.10
2022-09-28T13:39:40.561Z,36.30
2022-09-28T13:42:29.729Z,36.50
2022-09-28T13:45:09.825Z,36.80
2022-09-28T13:47:59.042Z,37.20
2022-09-28T13:50:29.970Z,37.50
2022-09-28T13:53:21.601Z,37.30
2022-09-28T13:55:49.588Z,36.40
2022-09-28T13:58:26.741Z,35.50
2022-09-28T14:01:04.073Z,34.90
2022-09-28T14:03:35.372Z,34.50
2022-09-28T14:06:06.412Z,33.90
2022-09-28T14:08:38.760Z,33.50
2022-09-28T14:11:25.053Z,33.20
2022-09-28T14:14:06.411Z,33.00
2022-09-28T14:16:48.680Z,33.10
2022-09-28T14:19:24.691Z,33.20
2022-09-28T14:22:01.536Z,33.70
2022-09-28T14:24:35.591Z,34.00
2022-09-28T14:27:22.463Z,34.30
2022-09-28T14:29:54.451Z,34.50
2022-09-28T14:32:24.117Z,33.90
2022-09-28T14:35:00.453Z,33.20
2022-09-28T14:37:52.122Z,32.50
2022-09-28T14:40:50.215Z,31.80
2022-09-28T14:43:28.874Z,31.30
2022-09-28T14:46:12.088Z,30.80
2022-09-28T14:49:02.049Z,30.50
2022-09-28T14:51:39.203Z,30.20
2022-09-28T14:54:13.334Z,30.10
2022-09-28T14:56:45.368Z,29.80
2022-09-28T14:59:25.184Z,29.50
2022-09-28T15:01:57.381Z,29.40
2022-09-28T15:04:28.486Z,29.20
2022-09-28T15:06:58.466Z,29.00
2022-09-28T15:09:29.960Z,28.90
2022-09-28T15:12:08.191Z,28.70
2022-09-28T15:14:43.900Z,28.50
2022-09-28T15:17:15.774Z,28.40
2022-09-28T15:19:54.880Z,28.20
2022-09-28T15:22:23.011Z,28.10
2022-09-28T15:25:02.452Z,27.90
2022-09-28T15:27:35.473Z,27.70
2022-09-28T15:30:19.333Z,27.60
2022-09-28T15:32:47.456Z,27.40
2022-09-28T15:35:23.164Z,27.20
2022-09-28T15:37:54.591Z,27.10
2022-09-28T15:40:43.259Z,27.00
2022-09-28T15:43:24.514Z,26.80
2022-09-28T15:46:03.154Z,26.60
2022-09-28T15:48:46.143Z,26.50
2022-09-28T15:51:14.646Z,26.40
2022-09-28T15:53:46.564Z,26.30
2022-09-28T15:56:17.644Z,26.10
2022-09-28T15:59:05.651Z,26.00
2022-09-28T16:01:41.120Z,25.90
2022-09-28T16:04:27.858Z,25.70
2022-09-28T16:07:11.080Z,25.60
2022-09-28T16:10:00.162Z,25.40
2022-09-28T16:12:35.185Z,25.30
2022-09-28T16:15:23.465Z,25.20
2022-09-28T16:18:01.017Z,25.00
2022-09-28T16:20:30.454Z,24.90
2022-09-28T16:23:10.970Z,24.80
2022-09-28T16:25:39.955Z,24.70
2022-09-28T16:28:26.477Z,24.50
2022-09-28T16:31:02.621Z,24.40
2022-09-28T16:33:41.149Z,24.30
2022-09-28T16:36:17.293Z,24.30
2022-09-28T16:38:45.838Z,24.10
2022-09-28T16:41:14.451Z,24.00
2022-09-28T16:43:44.732Z,23.90
2022-09-28T16:46:14.327Z,23.80
2022-09-28T16:48:49.951Z,23.70
2022-09-28T16:51:24.865Z,23.60
2022-09-28T16:54:18.524Z,23.50
2022-09-28T16:56:47.466Z,23.40
2022-09-28T16:59:16.043Z,23.30
2022-09-28T17:01:44.237Z,23.30
2022-09-28T17:12:59.884Z,22.80
2022-09-28T17:15:28.130Z,22.60
2022-09-28T17:17:58.498Z,22.50
2022-09-28T17:20:28.545Z,22.60
2022-09-28T17:22:59.873Z,22.60
2022-09-28T17:25:28.149Z,22.60
2022-09-28T17:27:57.694Z,22.50
2022-09-28T17:30:25.987Z,22.40
2022-09-28T17:32:56.759Z,22.40
2022-09-28T17:35:27.129Z,22.40
2022-09-28T17:37:59.326Z,22.40
2022-09-28T17:40:31.340Z,22.40
2022-09-28T17:49:15.074Z,22.00
2022-09-28T17:51:44.495Z,22.00
2022-09-28T17:54:13.944Z,22.00
2022-09-28T17:56:43.015Z,22.00
2022-09-28T17:59:13.794Z,22.00
2022-09-28T18:01:41.822Z,22.00
2022-09-28T18:04:19.077Z,21.90
2022-09-28T18:06:58.732Z,21.80
2022-09-28T18:09:29.930Z,21.60
2022-09-28T18:12:04.344Z,21.50
2022-09-28T18:14:32.388Z,21.50
2022-09-28T18:17:04.685Z,21.50
2022-09-28T18:19:35.837Z,21.50
2022-09-28T18:22:04.530Z,21.40
2022-09-28T18:24:32.825Z,21.40
2022-09-28T18:27:03.895Z,21.40
2022-09-28T18:29:33.626Z,21.30
2022-09-28T18:32:02.428Z,21.20
2022-09-28T18:34:35.515Z,21.20
2022-09-28T18:37:07.168Z,21.20
2022-09-28T18:39:38.722Z,21.20
2022-09-28T18:42:06.997Z,21.20
2022-09-28T18:44:34.992Z,21.10
2022-09-28T18:47:03.041Z,21.00
2022-09-28T18:49:32.044Z,21.00
2022-09-28T18:52:00.099Z,21.00
2022-09-28T18:54:28.636Z,21.00
2022-09-28T18:56:59.613Z,21.00
2022-09-28T18:59:27.825Z,21.00
2022-09-28T19:02:01.702Z,21.00
2022-09-28T19:04:41.738Z,21.00
2022-09-28T19:07:12.092Z,20.90
2022-09-28T19:09:44.319Z,20.90
2022-09-28T19:12:12.832Z,20.90
2022-09-28T19:14:46.382Z,20.80
2022-09-28T19:17:14.891Z,20.70
2022-09-28T19:19:43.109Z,20.70
2022-09-28T19:22:13.971Z,20.70
2022-09-28T19:24:42.091Z,20.70
2022-09-28T19:27:10.165Z,20.60
2022-09-28T19:29:40.891Z,20.60
2022-09-28T19:32:11.356Z,20.50
2022-09-28T19:34:40.554Z,20.50
2022-09-28T19:37:09.132Z,20.40
2022-09-28T19:39:39.789Z,20.40
2022-09-28T19:42:08.112Z,20.30
2022-09-28T19:44:37.652Z,20.30
2022-09-28T19:47:07.788Z,20.20
2022-09-28T19:49:37.468Z,20.20
2022-09-28T19:52:13.259Z,20.10
2022-09-28T19:54:57.225Z,20.10
2022-09-28T19:57:26.398Z,20.10
2022-09-28T19:59:59.314Z,20.00
2022-09-28T20:02:33.807Z,20.00
2022-09-28T20:05:01.992Z,19.90
2022-09-28T20:07:33.229Z,19.90
2022-09-28T20:10:04.173Z,19.80
2022-09-28T20:12:32.449Z,19.80
2022-09-28T20:15:03.403Z,19.70
2022-09-28T20:17:31.796Z,19.70
2022-09-28T20:19:59.789Z,19.60
2022-09-28T20:22:27.844Z,19.60
2022-09-28T20:24:55.915Z,19.60
2022-09-28T20:27:26.447Z,19.50
2022-09-28T20:29:56.702Z,19.50
2022-09-28T20:32:24.799Z,19.50
2022-09-28T20:34:52.896Z,19.50
2022-09-28T20:37:20.882Z,19.50
2022-09-28T20:39:52.591Z,19.40
2022-09-28T20:42:21.151Z,19.40
2022-09-28T20:44:52.274Z,19.40
2022-09-28T20:47:20.955Z,19.30
2022-09-28T20:49:48.865Z,19.30
2022-09-28T20:52:17.459Z,19.30
2022-09-28T20:54:48.143Z,19.30
2022-09-28T20:57:20.634Z,19.30
2022-09-28T20:59:53.651Z,19.30
2022-09-28T21:02:23.326Z,19.30
2022-09-28T21:04:54.485Z,19.20
2022-09-28T21:07:25.543Z,19.20
2022-09-28T21:09:55.862Z,19.20
2022-09-28T21:12:26.426Z,19.10
2022-09-28T21:14:54.541Z,19.20
2022-09-28T21:17:23.289Z,19.10
2022-09-28T21:19:52.495Z,19.10
2022-09-28T21:22:21.263Z,19.10
2022-09-28T21:24:49.354Z,19.00
2022-09-28T21:27:20.208Z,18.90
2022-09-28T21:29:48.254Z,18.90
2022-09-28T21:32:17.400Z,18.80
2022-09-28T21:34:50.762Z,18.80
2022-09-28T21:37:18.833Z,18.70
2022-09-28T21:39:47.594Z,18.60
2022-09-28T21:42:15.750Z,18.60
2022-09-28T21:44:46.254Z,18.60
2022-09-28T21:47:14.198Z,18.60
2022-09-28T21:49:42.415Z,18.50
2022-09-28T21:52:13.190Z,18.40
2022-09-28T21:54:44.126Z,18.40
2022-09-28T21:57:15.044Z,18.40
2022-09-28T21:59:43.497Z,18.40
2022-09-28T22:02:12.205Z,18.40
2022-09-28T22:04:43.030Z,18.30
2022-09-28T22:07:14.219Z,18.30
2022-09-28T22:09:45.260Z,18.30
2022-09-28T22:12:14.034Z,18.20
2022-09-28T22:14:44.579Z,18.20
2022-09-28T22:17:12.543Z,18.10
2022-09-28T22:19:43.103Z,18.10
2022-09-28T22:22:11.291Z,18.10
2022-09-28T22:24:39.176Z,18.00
2022-09-28T22:27:09.561Z,18.00
2022-09-28T22:29:39.903Z,17.90
2022-09-28T22:32:10.334Z,17.90
2022-09-28T22:34:40.889Z,17.90
2022-09-28T22:37:11.850Z,17.90
2022-09-28T22:39:42.755Z,17.90
2022-09-28T22:42:10.874Z,17.80
2022-09-28T22:44:40.854Z,17.80
2022-09-28T22:47:09.065Z,17.80
2022-09-28T22:49:37.206Z,17.70
2022-09-28T22:52:07.612Z,17.70
2022-09-28T22:54:38.052Z,17.70
2022-09-28T22:57:08.623Z,17.60
2022-09-28T22:59:36.533Z,17.60
2022-09-28T23:02:07.161Z,17.60
2022-09-28T23:04:35.333Z,17.50
2022-09-28T23:07:05.759Z,17.50
2022-09-28T23:09:33.795Z,17.40
2022-09-28T23:12:03.101Z,17.40
2022-09-28T23:14:31.174Z,17.40
2022-09-28T23:17:04.700Z,17.40
2022-09-28T23:19:35.561Z,17.30
2022-09-28T23:22:06.252Z,17.30
2022-09-28T23:24:38.335Z,17.30
2022-09-28T23:27:08.776Z,17.20
2022-09-28T23:29:46.453Z,17.20
2022-09-28T23:32:14.725Z,17.20
2022-09-28T23:34:44.265Z,17.20
2022-09-28T23:37:15.334Z,17.10
2022-09-28T23:39:46.541Z,17.10
2022-09-28T23:42:16.846Z,17.00
2022-09-28T23:44:47.237Z,17.00
2022-09-28T23:47:18.992Z,17.00
2022-09-28T23:49:49.708Z,17.00
2022-09-28T23:52:18.058Z,16.90
2022-09-28T23:54:46.006Z,16.90
2022-09-28T23:57:14.210Z,16.80
2022-09-28T23:59:42.384Z,16.80
